sensor_id;sensor_type;location;lat;lon;timestamp;temperature;humidity
65584;DHT22;70321;43.592;1.456;2023-08-06T00:01:23;18.61;81.68
65584;DHT22;70321;43.592;1.456;2023-08-06T00:03:52;18.65;81.67
65584;DHT22;70321;43.592;1.456;2023-08-06T00:06:18;18.65;81.57
65584;DHT22;70321;43.592;1.456;2023-08-06T00:08:45;18.63;81.56
65584;DHT22;70321;43.592;1.456;2023-08-06T00:11:12;18.65;81.43
65584;DHT22;70321;43.592;1.456;2023-08-06T00:13:39;18.64;81.36
65584;DHT22;70321;43.592;1.456;2023-08-06T00:16:10;18.63;81.37
65584;DHT22;70321;43.592;1.456;2023-08-06T00:18:37;18.63;81.32
65584;DHT22;70321;43.592;1.456;2023-08-06T00:21:04;18.63;81.29
65584;DHT22;70321;43.592;1.456;2023-08-06T00:23:30;18.61;81.20
65584;DHT22;70321;43.592;1.456;2023-08-06T00:25:57;18.57;81.26
65584;DHT22;70321;43.592;1.456;2023-08-06T00:28:24;18.56;81.18
65584;DHT22;70321;43.592;1.456;2023-08-06T00:30:54;18.57;81.31
65584;DHT22;70321;43.592;1.456;2023-08-06T00:33:24;18.61;81.32
65584;DHT22;70321;43.592;1.456;2023-08-06T00:35:51;18.57;81.10
65584;DHT22;70321;43.592;1.456;2023-08-06T00:38:18;18.57;81.12
65584;DHT22;70321;43.592;1.456;2023-08-06T00:40:44;18.54;81.33
65584;DHT22;70321;43.592;1.456;2023-08-06T00:43:11;18.51;81.23
65584;DHT22;70321;43.592;1.456;2023-08-06T00:45:38;18.53;81.30
65584;DHT22;70321;43.592;1.456;2023-08-06T00:48:05;18.51;81.19
65584;DHT22;70321;43.592;1.456;2023-08-06T00:50:33;18.50;81.08
65584;DHT22;70321;43.592;1.456;2023-08-06T00:53:00;18.50;81.04
65584;DHT22;70321;43.592;1.456;2023-08-06T00:55:28;18.50;80.87
65584;DHT22;70321;43.592;1.456;2023-08-06T00:57:55;18.47;80.55
65584;DHT22;70321;43.592;1.456;2023-08-06T01:00:24;18.49;80.64
65584;DHT22;70321;43.592;1.456;2023-08-06T01:02:51;18.46;80.41
65584;DHT22;70321;43.592;1.456;2023-08-06T01:05:20;18.44;80.15
65584;DHT22;70321;43.592;1.456;2023-08-06T01:08:06;18.41;80.02
65584;DHT22;70321;43.592;1.456;2023-08-06T01:13:31;18.33;79.19
65584;DHT22;70321;43.592;1.456;2023-08-06T01:16:00;18.34;79.00
65584;DHT22;70321;43.592;1.456;2023-08-06T01:18:28;18.30;78.01
65584;DHT22;70321;43.592;1.456;2023-08-06T01:20:56;18.23;78.25
65584;DHT22;70321;43.592;1.456;2023-08-06T01:23:24;18.22;78.33
65584;DHT22;70321;43.592;1.456;2023-08-06T01:26:24;18.22;78.07
65584;DHT22;70321;43.592;1.456;2023-08-06T01:28:54;18.22;77.81
65584;DHT22;70321;43.592;1.456;2023-08-06T01:31:24;18.19;76.25
65584;DHT22;70321;43.592;1.456;2023-08-06T01:33:53;18.16;76.07
65584;DHT22;70321;43.592;1.456;2023-08-06T01:36:20;18.14;75.02
65584;DHT22;70321;43.592;1.456;2023-08-06T01:38:48;18.09;74.39
65584;DHT22;70321;43.592;1.456;2023-08-06T01:41:15;18.03;74.43
65584;DHT22;70321;43.592;1.456;2023-08-06T01:43:42;18.05;74.58
65584;DHT22;70321;43.592;1.456;2023-08-06T01:46:08;18.07;74.29
65584;DHT22;70321;43.592;1.456;2023-08-06T01:48:35;18.05;74.54
65584;DHT22;70321;43.592;1.456;2023-08-06T01:51:05;18.09;73.59
65584;DHT22;70321;43.592;1.456;2023-08-06T01:53:33;18.05;73.08
65584;DHT22;70321;43.592;1.456;2023-08-06T01:56:00;18.05;73.62
65584;DHT22;70321;43.592;1.456;2023-08-06T01:58:27;18.03;72.61
65584;DHT22;70321;43.592;1.456;2023-08-06T02:00:53;18.02;72.14
65584;DHT22;70321;43.592;1.456;2023-08-06T02:03:20;17.99;72.27
65584;DHT22;70321;43.592;1.456;2023-08-06T02:05:47;17.99;72.04
65584;DHT22;70321;43.592;1.456;2023-08-06T02:08:13;18.02;72.13
65584;DHT22;70321;43.592;1.456;2023-08-06T02:10:40;18.02;72.34
65584;DHT22;70321;43.592;1.456;2023-08-06T02:13:08;18.00;71.97
65584;DHT22;70321;43.592;1.456;2023-08-06T02:15:34;18.00;72.08
65584;DHT22;70321;43.592;1.456;2023-08-06T02:18:01;17.97;71.75
65584;DHT22;70321;43.592;1.456;2023-08-06T02:20:28;18.03;71.94
65584;DHT22;70321;43.592;1.456;2023-08-06T02:22:54;18.03;72.35
65584;DHT22;70321;43.592;1.456;2023-08-06T02:25:21;18.05;72.45
65584;DHT22;70321;43.592;1.456;2023-08-06T02:27:48;18.06;72.45
65584;DHT22;70321;43.592;1.456;2023-08-06T02:30:14;18.05;72.54
65584;DHT22;70321;43.592;1.456;2023-08-06T02:32:41;18.05;72.16
65584;DHT22;70321;43.592;1.456;2023-08-06T02:35:08;18.07;71.39
65584;DHT22;70321;43.592;1.456;2023-08-06T02:37:35;18.02;70.07
65584;DHT22;70321;43.592;1.456;2023-08-06T02:40:02;17.99;69.95
65584;DHT22;70321;43.592;1.456;2023-08-06T02:42:29;17.95;69.89
65584;DHT22;70321;43.592;1.456;2023-08-06T02:44:56;17.90;69.63
65584;DHT22;70321;43.592;1.456;2023-08-06T02:47:22;17.89;69.75
65584;DHT22;70321;43.592;1.456;2023-08-06T02:49:50;17.87;69.39
65584;DHT22;70321;43.592;1.456;2023-08-06T02:52:16;17.89;68.92
65584;DHT22;70321;43.592;1.456;2023-08-06T02:54:43;17.87;69.50
65584;DHT22;70321;43.592;1.456;2023-08-06T02:57:10;17.87;69.16
65584;DHT22;70321;43.592;1.456;2023-08-06T02:59:36;17.86;68.27
65584;DHT22;70321;43.592;1.456;2023-08-06T03:02:03;17.86;67.56
65584;DHT22;70321;43.592;1.456;2023-08-06T03:04:30;17.86;67.54
65584;DHT22;70321;43.592;1.456;2023-08-06T03:06:57;17.87;67.43
65584;DHT22;70321;43.592;1.456;2023-08-06T03:09:23;17.85;67.20
65584;DHT22;70321;43.592;1.456;2023-08-06T03:11:50;17.85;67.10
65584;DHT22;70321;43.592;1.456;2023-08-06T03:14:17;17.85;67.00
65584;DHT22;70321;43.592;1.456;2023-08-06T03:16:44;17.82;67.35
65584;DHT22;70321;43.592;1.456;2023-08-06T03:19:11;17.82;67.27
65584;DHT22;70321;43.592;1.456;2023-08-06T03:21:37;17.79;67.20
65584;DHT22;70321;43.592;1.456;2023-08-06T03:24:04;17.78;66.42
65584;DHT22;70321;43.592;1.456;2023-08-06T03:26:31;17.79;66.73
65584;DHT22;70321;43.592;1.456;2023-08-06T03:28:57;17.78;66.63
65584;DHT22;70321;43.592;1.456;2023-08-06T03:31:24;17.82;66.79
65584;DHT22;70321;43.592;1.456;2023-08-06T03:33:51;17.85;66.84
65584;DHT22;70321;43.592;1.456;2023-08-06T03:36:17;17.87;66.91
65584;DHT22;70321;43.592;1.456;2023-08-06T03:38:44;17.87;67.04
65584;DHT22;70321;43.592;1.456;2023-08-06T03:41:11;17.90;67.11
65584;DHT22;70321;43.592;1.456;2023-08-06T03:43:37;17.89;67.16
65584;DHT22;70321;43.592;1.456;2023-08-06T03:46:04;17.87;67.26
65584;DHT22;70321;43.592;1.456;2023-08-06T03:48:31;17.87;67.86
65584;DHT22;70321;43.592;1.456;2023-08-06T03:50:57;17.85;68.58
65584;DHT22;70321;43.592;1.456;2023-08-06T03:53:27;17.83;68.82
65584;DHT22;70321;43.592;1.456;2023-08-06T03:55:53;17.85;68.98
65584;DHT22;70321;43.592;1.456;2023-08-06T03:58:22;17.81;69.48
65584;DHT22;70321;43.592;1.456;2023-08-06T04:00:48;17.83;69.60
65584;DHT22;70321;43.592;1.456;2023-08-06T04:03:23;17.81;69.07
65584;DHT22;70321;43.592;1.456;2023-08-06T04:05:53;17.86;69.48
65584;DHT22;70321;43.592;1.456;2023-08-06T04:08:20;17.86;69.28
65584;DHT22;70321;43.592;1.456;2023-08-06T04:10:53;17.85;69.29
65584;DHT22;70321;43.592;1.456;2023-08-06T04:13:20;17.83;69.53
65584;DHT22;70321;43.592;1.456;2023-08-06T04:15:46;17.79;69.31
65584;DHT22;70321;43.592;1.456;2023-08-06T04:18:14;17.78;69.45
65584;DHT22;70321;43.592;1.456;2023-08-06T04:20:47;17.79;69.50
65584;DHT22;70321;43.592;1.456;2023-08-06T04:23:15;17.79;69.63
65584;DHT22;70321;43.592;1.456;2023-08-06T04:25:42;17.81;69.97
65584;DHT22;70321;43.592;1.456;2023-08-06T04:28:09;17.79;70.34
65584;DHT22;70321;43.592;1.456;2023-08-06T04:30:37;17.76;70.39
65584;DHT22;70321;43.592;1.456;2023-08-06T04:33:04;17.75;70.75
65584;DHT22;70321;43.592;1.456;2023-08-06T04:35:31;17.75;71.29
65584;DHT22;70321;43.592;1.456;2023-08-06T04:37:57;17.75;71.26
65584;DHT22;70321;43.592;1.456;2023-08-06T04:40:24;17.75;71.74
65584;DHT22;70321;43.592;1.456;2023-08-06T04:42:50;17.68;71.74
65584;DHT22;70321;43.592;1.456;2023-08-06T04:45:17;17.63;71.78
65584;DHT22;70321;43.592;1.456;2023-08-06T04:47:44;17.65;72.17
65584;DHT22;70321;43.592;1.456;2023-08-06T04:50:11;17.65;72.14
65584;DHT22;70321;43.592;1.456;2023-08-06T04:52:37;17.61;72.15
65584;DHT22;70321;43.592;1.456;2023-08-06T04:55:04;17.59;72.00
65584;DHT22;70321;43.592;1.456;2023-08-06T04:57:32;17.55;72.09
65584;DHT22;70321;43.592;1.456;2023-08-06T04:59:59;17.56;72.11
65584;DHT22;70321;43.592;1.456;2023-08-06T05:02:26;17.55;71.98
65584;DHT22;70321;43.592;1.456;2023-08-06T05:04:53;17.55;71.87
65584;DHT22;70321;43.592;1.456;2023-08-06T05:07:19;17.52;71.77
65584;DHT22;70321;43.592;1.456;2023-08-06T05:09:46;17.52;71.74
65584;DHT22;70321;43.592;1.456;2023-08-06T05:12:13;17.49;71.64
65584;DHT22;70321;43.592;1.456;2023-08-06T05:14:39;17.51;71.83
65584;DHT22;70321;43.592;1.456;2023-08-06T05:17:06;17.52;71.65
65584;DHT22;70321;43.592;1.456;2023-08-06T05:19:33;17.48;71.00
65584;DHT22;70321;43.592;1.456;2023-08-06T05:22:00;17.52;71.16
65584;DHT22;70321;43.592;1.456;2023-08-06T05:24:27;17.51;70.84
65584;DHT22;70321;43.592;1.456;2023-08-06T05:26:54;17.52;70.87
65584;DHT22;70321;43.592;1.456;2023-08-06T05:29:21;17.53;69.67
65584;DHT22;70321;43.592;1.456;2023-08-06T05:31:47;17.53;69.63
65584;DHT22;70321;43.592;1.456;2023-08-06T05:34:14;17.55;69.78
65584;DHT22;70321;43.592;1.456;2023-08-06T05:36:41;17.55;69.40
65584;DHT22;70321;43.592;1.456;2023-08-06T05:39:08;17.51;69.08
65584;DHT22;70321;43.592;1.456;2023-08-06T05:41:34;17.46;69.03
65584;DHT22;70321;43.592;1.456;2023-08-06T05:44:01;17.49;69.12
65584;DHT22;70321;43.592;1.456;2023-08-06T05:46:30;17.45;68.99
65584;DHT22;70321;43.592;1.456;2023-08-06T05:48:56;17.46;68.95
65584;DHT22;70321;43.592;1.456;2023-08-06T05:51:23;17.41;68.58
65584;DHT22;70321;43.592;1.456;2023-08-06T05:53:50;17.43;68.35
65584;DHT22;70321;43.592;1.456;2023-08-06T05:56:16;17.43;67.89
65584;DHT22;70321;43.592;1.456;2023-08-06T05:58:43;17.45;67.44
65584;DHT22;70321;43.592;1.456;2023-08-06T06:01:10;17.46;67.56
65584;DHT22;70321;43.592;1.456;2023-08-06T06:03:37;17.46;67.09
65584;DHT22;70321;43.592;1.456;2023-08-06T06:06:03;17.49;67.35
65584;DHT22;70321;43.592;1.456;2023-08-06T06:08:30;17.52;67.37
65584;DHT22;70321;43.592;1.456;2023-08-06T06:10:57;17.53;67.28
65584;DHT22;70321;43.592;1.456;2023-08-06T06:13:24;17.53;66.92
65584;DHT22;70321;43.592;1.456;2023-08-06T06:15:54;17.56;67.51
65584;DHT22;70321;43.592;1.456;2023-08-06T06:18:21;17.58;66.83
65584;DHT22;70321;43.592;1.456;2023-08-06T06:20:48;17.59;67.31
65584;DHT22;70321;43.592;1.456;2023-08-06T06:23:15;17.59;67.28
65584;DHT22;70321;43.592;1.456;2023-08-06T06:25:43;17.62;67.96
65584;DHT22;70321;43.592;1.456;2023-08-06T06:28:10;17.65;67.67
65584;DHT22;70321;43.592;1.456;2023-08-06T06:30:36;17.63;67.55
65584;DHT22;70321;43.592;1.456;2023-08-06T06:33:03;17.58;67.48
65584;DHT22;70321;43.592;1.456;2023-08-06T06:35:30;17.62;68.04
65584;DHT22;70321;43.592;1.456;2023-08-06T06:37:56;17.59;67.98
65584;DHT22;70321;43.592;1.456;2023-08-06T06:40:23;17.59;68.37
65584;DHT22;70321;43.592;1.456;2023-08-06T06:42:50;17.58;67.75
65584;DHT22;70321;43.592;1.456;2023-08-06T06:45:16;17.56;67.32
65584;DHT22;70321;43.592;1.456;2023-08-06T06:47:43;17.53;67.02
65584;DHT22;70321;43.592;1.456;2023-08-06T06:50:10;17.53;67.50
65584;DHT22;70321;43.592;1.456;2023-08-06T06:52:37;17.55;67.67
65584;DHT22;70321;43.592;1.456;2023-08-06T06:55:04;17.61;67.76
65584;DHT22;70321;43.592;1.456;2023-08-06T06:57:31;17.61;67.62
65584;DHT22;70321;43.592;1.456;2023-08-06T06:59:57;17.65;67.29
65584;DHT22;70321;43.592;1.456;2023-08-06T07:02:24;17.65;67.37
65584;DHT22;70321;43.592;1.456;2023-08-06T07:04:50;17.71;66.78
65584;DHT22;70321;43.592;1.456;2023-08-06T07:07:17;17.75;67.10
65584;DHT22;70321;43.592;1.456;2023-08-06T07:09:44;17.76;66.90
65584;DHT22;70321;43.592;1.456;2023-08-06T07:12:11;17.82;67.08
65584;DHT22;70321;43.592;1.456;2023-08-06T07:14:38;17.81;66.16
65584;DHT22;70321;43.592;1.456;2023-08-06T07:17:05;17.76;65.51
65584;DHT22;70321;43.592;1.456;2023-08-06T07:19:32;17.76;66.00
65584;DHT22;70321;43.592;1.456;2023-08-06T07:21:58;17.78;66.40
65584;DHT22;70321;43.592;1.456;2023-08-06T07:24:25;17.81;66.56
65584;DHT22;70321;43.592;1.456;2023-08-06T07:26:52;17.81;65.61
65584;DHT22;70321;43.592;1.456;2023-08-06T07:29:19;17.83;66.08
65584;DHT22;70321;43.592;1.456;2023-08-06T07:31:48;17.86;66.07
65584;DHT22;70321;43.592;1.456;2023-08-06T07:34:16;17.90;66.12
65584;DHT22;70321;43.592;1.456;2023-08-06T07:36:44;17.97;65.87
65584;DHT22;70321;43.592;1.456;2023-08-06T07:39:12;17.97;65.76
65584;DHT22;70321;43.592;1.456;2023-08-06T07:41:38;18.00;65.42
65584;DHT22;70321;43.592;1.456;2023-08-06T07:44:05;18.03;65.30
65584;DHT22;70321;43.592;1.456;2023-08-06T07:46:32;18.05;64.56
65584;DHT22;70321;43.592;1.456;2023-08-06T07:48:58;18.00;64.50
65584;DHT22;70321;43.592;1.456;2023-08-06T07:51:25;18.02;64.73
65584;DHT22;70321;43.592;1.456;2023-08-06T07:53:52;18.03;64.39
65584;DHT22;70321;43.592;1.456;2023-08-06T07:56:18;18.13;64.89
65584;DHT22;70321;43.592;1.456;2023-08-06T07:58:45;18.17;64.55
65584;DHT22;70321;43.592;1.456;2023-08-06T08:01:12;18.19;64.17
65584;DHT22;70321;43.592;1.456;2023-08-06T08:03:39;18.25;64.25
65584;DHT22;70321;43.592;1.456;2023-08-06T08:06:05;18.29;64.17
65584;DHT22;70321;43.592;1.456;2023-08-06T08:08:32;18.36;64.07
65584;DHT22;70321;43.592;1.456;2023-08-06T08:10:59;18.36;63.83
65584;DHT22;70321;43.592;1.456;2023-08-06T08:13:27;18.39;63.41
65584;DHT22;70321;43.592;1.456;2023-08-06T08:16:00;18.44;63.85
65584;DHT22;70321;43.592;1.456;2023-08-06T08:18:27;18.44;62.76
65584;DHT22;70321;43.592;1.456;2023-08-06T08:20:54;18.44;62.77
65584;DHT22;70321;43.592;1.456;2023-08-06T08:23:21;18.44;62.93
65584;DHT22;70321;43.592;1.456;2023-08-06T08:25:47;18.47;62.99
65584;DHT22;70321;43.592;1.456;2023-08-06T08:28:14;18.50;62.44
65584;DHT22;70321;43.592;1.456;2023-08-06T08:30:41;18.50;61.14
65584;DHT22;70321;43.592;1.456;2023-08-06T08:33:07;18.50;60.66
65584;DHT22;70321;43.592;1.456;2023-08-06T08:35:36;18.47;60.51
65584;DHT22;70321;43.592;1.456;2023-08-06T08:38:03;18.51;60.43
65584;DHT22;70321;43.592;1.456;2023-08-06T08:40:32;18.56;60.30
65584;DHT22;70321;43.592;1.456;2023-08-06T08:42:59;18.61;60.86
65584;DHT22;70321;43.592;1.456;2023-08-06T08:45:28;18.68;60.29
65584;DHT22;70321;43.592;1.456;2023-08-06T08:47:56;18.70;60.12
65584;DHT22;70321;43.592;1.456;2023-08-06T08:50:22;18.75;60.69
65584;DHT22;70321;43.592;1.456;2023-08-06T08:52:50;18.83;60.62
65584;DHT22;70321;43.592;1.456;2023-08-06T08:55:17;18.91;60.69
65584;DHT22;70321;43.592;1.456;2023-08-06T08:57:44;19.01;59.64
65584;DHT22;70321;43.592;1.456;2023-08-06T09:00:11;19.00;59.56
65584;DHT22;70321;43.592;1.456;2023-08-06T09:02:38;18.97;59.18
65584;DHT22;70321;43.592;1.456;2023-08-06T09:05:07;19.01;59.64
65584;DHT22;70321;43.592;1.456;2023-08-06T09:07:47;19.05;59.97
65584;DHT22;70321;43.592;1.456;2023-08-06T09:10:16;19.12;59.68
65584;DHT22;70321;43.592;1.456;2023-08-06T09:12:49;19.16;59.23
65584;DHT22;70321;43.592;1.456;2023-08-06T09:15:17;19.29;59.54
65584;DHT22;70321;43.592;1.456;2023-08-06T09:17:44;19.35;59.16
65584;DHT22;70321;43.592;1.456;2023-08-06T09:20:14;19.36;59.22
65584;DHT22;70321;43.592;1.456;2023-08-06T09:22:41;19.41;58.65
65584;DHT22;70321;43.592;1.456;2023-08-06T09:25:08;19.44;58.48
65584;DHT22;70321;43.592;1.456;2023-08-06T09:27:40;19.45;58.25
65584;DHT22;70321;43.592;1.456;2023-08-06T09:30:07;19.39;59.01
65584;DHT22;70321;43.592;1.456;2023-08-06T09:32:46;19.35;58.82
65584;DHT22;70321;43.592;1.456;2023-08-06T09:35:22;19.36;57.88
65584;DHT22;70321;43.592;1.456;2023-08-06T09:37:49;19.36;57.41
65584;DHT22;70321;43.592;1.456;2023-08-06T09:40:42;19.35;57.44
65584;DHT22;70321;43.592;1.456;2023-08-06T09:43:08;19.41;57.60
65584;DHT22;70321;43.592;1.456;2023-08-06T09:45:37;19.42;57.53
65584;DHT22;70321;43.592;1.456;2023-08-06T09:48:06;19.42;57.05
65584;DHT22;70321;43.592;1.456;2023-08-06T09:50:34;19.42;58.68
65584;DHT22;70321;43.592;1.456;2023-08-06T09:53:06;19.41;57.20
65584;DHT22;70321;43.592;1.456;2023-08-06T09:55:33;19.52;58.11
65584;DHT22;70321;43.592;1.456;2023-08-06T09:58:00;19.62;57.58
65584;DHT22;70321;43.592;1.456;2023-08-06T10:00:27;19.72;56.05
65584;DHT22;70321;43.592;1.456;2023-08-06T10:02:59;19.73;55.76
65584;DHT22;70321;43.592;1.456;2023-08-06T10:05:26;19.80;57.02
65584;DHT22;70321;43.592;1.456;2023-08-06T10:07:53;19.87;55.23
65584;DHT22;70321;43.592;1.456;2023-08-06T10:10:23;19.96;55.24
65584;DHT22;70321;43.592;1.456;2023-08-06T10:12:51;20.03;55.52
65584;DHT22;70321;43.592;1.456;2023-08-06T10:15:25;20.09;54.78
65584;DHT22;70321;43.592;1.456;2023-08-06T10:17:56;20.06;54.84
65584;DHT22;70321;43.592;1.456;2023-08-06T10:20:24;20.03;55.14
65584;DHT22;70321;43.592;1.456;2023-08-06T10:23:04;19.97;54.50
65584;DHT22;70321;43.592;1.456;2023-08-06T10:25:32;20.01;55.12
65584;DHT22;70321;43.592;1.456;2023-08-06T10:28:00;20.06;54.92
65584;DHT22;70321;43.592;1.456;2023-08-06T10:30:33;20.10;55.17
65584;DHT22;70321;43.592;1.456;2023-08-06T10:33:01;20.16;54.25
65584;DHT22;70321;43.592;1.456;2023-08-06T10:37:59;20.13;54.43
65584;DHT22;70321;43.592;1.456;2023-08-06T10:40:29;20.10;53.44
65584;DHT22;70321;43.592;1.456;2023-08-06T10:43:04;20.10;53.76
65584;DHT22;70321;43.592;1.456;2023-08-06T10:45:37;20.10;53.78
65584;DHT22;70321;43.592;1.456;2023-08-06T10:48:04;20.14;53.57
65584;DHT22;70321;43.592;1.456;2023-08-06T10:50:31;20.16;53.28
65584;DHT22;70321;43.592;1.456;2023-08-06T10:53:04;20.29;53.92
65584;DHT22;70321;43.592;1.456;2023-08-06T10:55:32;20.41;53.62
65584;DHT22;70321;43.592;1.456;2023-08-06T10:57:59;20.48;51.69
65584;DHT22;70321;43.592;1.456;2023-08-06T11:00:25;20.54;52.47
65584;DHT22;70321;43.592;1.456;2023-08-06T11:02:53;20.61;52.07
65584;DHT22;70321;43.592;1.456;2023-08-06T11:05:20;20.68;52.07
65584;DHT22;70321;43.592;1.456;2023-08-06T11:07:47;20.74;51.91
65584;DHT22;70321;43.592;1.456;2023-08-06T11:10:15;20.73;50.84
65584;DHT22;70321;43.592;1.456;2023-08-06T11:12:42;20.70;51.46
65584;DHT22;70321;43.592;1.456;2023-08-06T11:15:09;20.68;50.96
65584;DHT22;70321;43.592;1.456;2023-08-06T11:17:40;20.70;51.78
65584;DHT22;70321;43.592;1.456;2023-08-06T11:20:07;20.80;53.52
65584;DHT22;70321;43.592;1.456;2023-08-06T11:22:36;20.88;51.61
65584;DHT22;70321;43.592;1.456;2023-08-06T11:25:03;20.91;51.35
65584;DHT22;70321;43.592;1.456;2023-08-06T11:27:29;20.87;50.56
65584;DHT22;70321;43.592;1.456;2023-08-06T11:29:56;20.83;50.72
65584;DHT22;70321;43.592;1.456;2023-08-06T11:32:23;20.92;51.11
65584;DHT22;70321;43.592;1.456;2023-08-06T11:34:50;20.95;50.63
65584;DHT22;70321;43.592;1.456;2023-08-06T11:37:21;20.96;52.27
65584;DHT22;70321;43.592;1.456;2023-08-06T11:39:48;21.05;50.37
65584;DHT22;70321;43.592;1.456;2023-08-06T11:42:15;21.12;50.42
65584;DHT22;70321;43.592;1.456;2023-08-06T11:44:42;21.22;50.16
65584;DHT22;70321;43.592;1.456;2023-08-06T11:47:14;21.25;49.29
65584;DHT22;70321;43.592;1.456;2023-08-06T11:49:48;21.26;49.45
65584;DHT22;70321;43.592;1.456;2023-08-06T11:52:22;21.29;48.19
65584;DHT22;70321;43.592;1.456;2023-08-06T11:55:04;21.24;48.90
65584;DHT22;70321;43.592;1.456;2023-08-06T11:57:34;21.22;49.35
65584;DHT22;70321;43.592;1.456;2023-08-06T12:00:10;21.32;49.80
65584;DHT22;70321;43.592;1.456;2023-08-06T12:02:41;21.34;48.67
65584;DHT22;70321;43.592;1.456;2023-08-06T12:05:15;21.25;48.48
65584;DHT22;70321;43.592;1.456;2023-08-06T12:08:01;21.24;48.97
65584;DHT22;70321;43.592;1.456;2023-08-06T12:10:29;21.21;49.24
65584;DHT22;70321;43.592;1.456;2023-08-06T12:12:56;21.22;48.69
65584;DHT22;70321;43.592;1.456;2023-08-06T12:15:23;21.26;48.85
65584;DHT22;70321;43.592;1.456;2023-08-06T12:17:50;21.28;47.92
65584;DHT22;70321;43.592;1.456;2023-08-06T12:20:17;21.29;47.99
65584;DHT22;70321;43.592;1.456;2023-08-06T12:22:44;21.38;48.59
65584;DHT22;70321;43.592;1.456;2023-08-06T12:25:12;21.45;48.50
65584;DHT22;70321;43.592;1.456;2023-08-06T12:27:43;21.62;48.32
65584;DHT22;70321;43.592;1.456;2023-08-06T12:30:11;21.83;47.16
65584;DHT22;70321;43.592;1.456;2023-08-06T12:32:38;21.92;46.51
65584;DHT22;70321;43.592;1.456;2023-08-06T12:35:05;21.97;47.49
65584;DHT22;70321;43.592;1.456;2023-08-06T12:37:34;22.02;46.57
65584;DHT22;70321;43.592;1.456;2023-08-06T12:40:01;22.16;46.05
65584;DHT22;70321;43.592;1.456;2023-08-06T12:42:45;22.27;45.60
65584;DHT22;70321;43.592;1.456;2023-08-06T12:45:12;22.33;45.26
65584;DHT22;70321;43.592;1.456;2023-08-06T12:47:39;22.33;46.04
65584;DHT22;70321;43.592;1.456;2023-08-06T12:50:06;22.39;45.08
65584;DHT22;70321;43.592;1.456;2023-08-06T12:52:34;22.36;44.76
65584;DHT22;70321;43.592;1.456;2023-08-06T12:55:01;22.40;44.90
65584;DHT22;70321;43.592;1.456;2023-08-06T12:57:27;22.48;44.68
65584;DHT22;70321;43.592;1.456;2023-08-06T13:00:13;22.60;44.11
65584;DHT22;70321;43.592;1.456;2023-08-06T13:02:39;22.65;43.65
65584;DHT22;70321;43.592;1.456;2023-08-06T13:05:06;22.63;44.12
65584;DHT22;70321;43.592;1.456;2023-08-06T13:07:33;22.58;44.53
65584;DHT22;70321;43.592;1.456;2023-08-06T13:10:00;22.45;44.45
65584;DHT22;70321;43.592;1.456;2023-08-06T13:12:26;22.43;44.17
65584;DHT22;70321;43.592;1.456;2023-08-06T13:14:53;22.41;44.65
65584;DHT22;70321;43.592;1.456;2023-08-06T13:17:21;22.43;46.64
65584;DHT22;70321;43.592;1.456;2023-08-06T13:19:48;22.47;45.96
65584;DHT22;70321;43.592;1.456;2023-08-06T13:22:15;22.60;48.04
65584;DHT22;70321;43.592;1.456;2023-08-06T13:24:41;22.71;47.70
65584;DHT22;70321;43.592;1.456;2023-08-06T13:27:08;22.84;45.12
65584;DHT22;70321;43.592;1.456;2023-08-06T13:29:36;22.84;44.32
65584;DHT22;70321;43.592;1.456;2023-08-06T13:32:02;22.78;43.92
65584;DHT22;70321;43.592;1.456;2023-08-06T13:34:29;22.69;43.98
65584;DHT22;70321;43.592;1.456;2023-08-06T13:36:56;22.74;44.28
65584;DHT22;70321;43.592;1.456;2023-08-06T13:39:23;22.84;44.67
65584;DHT22;70321;43.592;1.456;2023-08-06T13:41:50;22.81;44.46
65584;DHT22;70321;43.592;1.456;2023-08-06T13:44:16;22.77;45.72
65584;DHT22;70321;43.592;1.456;2023-08-06T13:46:43;22.72;45.86
65584;DHT22;70321;43.592;1.456;2023-08-06T13:49:10;22.69;46.64
65584;DHT22;70321;43.592;1.456;2023-08-06T13:51:36;22.71;46.35
65584;DHT22;70321;43.592;1.456;2023-08-06T13:54:04;22.78;45.50
65584;DHT22;70321;43.592;1.456;2023-08-06T13:56:32;22.88;45.43
65584;DHT22;70321;43.592;1.456;2023-08-06T13:58:59;23.01;46.03
65584;DHT22;70321;43.592;1.456;2023-08-06T14:01:25;23.02;45.64
65584;DHT22;70321;43.592;1.456;2023-08-06T14:04:13;23.07;46.04
65584;DHT22;70321;43.592;1.456;2023-08-06T14:06:39;23.16;45.27
65584;DHT22;70321;43.592;1.456;2023-08-06T14:09:07;23.19;45.82
65584;DHT22;70321;43.592;1.456;2023-08-06T14:11:34;23.22;44.72
65584;DHT22;70321;43.592;1.456;2023-08-06T14:14:00;23.14;43.49
65584;DHT22;70321;43.592;1.456;2023-08-06T14:16:29;23.11;44.56
65584;DHT22;70321;43.592;1.456;2023-08-06T14:18:56;23.14;44.83
65584;DHT22;70321;43.592;1.456;2023-08-06T14:21:23;23.18;43.56
65584;DHT22;70321;43.592;1.456;2023-08-06T14:23:49;23.23;43.31
65584;DHT22;70321;43.592;1.456;2023-08-06T14:26:16;23.25;43.89
65584;DHT22;70321;43.592;1.456;2023-08-06T14:28:43;23.19;43.26
65584;DHT22;70321;43.592;1.456;2023-08-06T14:31:11;23.16;43.81
65584;DHT22;70321;43.592;1.456;2023-08-06T14:33:38;23.12;44.04
65584;DHT22;70321;43.592;1.456;2023-08-06T14:36:04;23.12;43.61
65584;DHT22;70321;43.592;1.456;2023-08-06T14:38:32;23.20;43.50
65584;DHT22;70321;43.592;1.456;2023-08-06T14:41:06;23.29;44.20
65584;DHT22;70321;43.592;1.456;2023-08-06T14:43:33;23.25;41.88
65584;DHT22;70321;43.592;1.456;2023-08-06T14:45:59;23.25;43.85
65584;DHT22;70321;43.592;1.456;2023-08-06T14:48:26;23.19;43.08
65584;DHT22;70321;43.592;1.456;2023-08-06T14:50:54;23.12;43.90
65584;DHT22;70321;43.592;1.456;2023-08-06T14:53:20;23.09;45.48
65584;DHT22;70321;43.592;1.456;2023-08-06T14:55:47;23.01;44.09
65584;DHT22;70321;43.592;1.456;2023-08-06T14:58:14;23.04;43.99
65584;DHT22;70321;43.592;1.456;2023-08-06T15:00:40;23.07;44.09
65584;DHT22;70321;43.592;1.456;2023-08-06T15:03:07;23.11;44.57
65584;DHT22;70321;43.592;1.456;2023-08-06T15:05:34;23.14;44.36
65584;DHT22;70321;43.592;1.456;2023-08-06T15:08:01;23.16;45.33
65584;DHT22;70321;43.592;1.456;2023-08-06T15:10:27;23.20;44.50
65584;DHT22;70321;43.592;1.456;2023-08-06T15:12:54;23.14;43.38
65584;DHT22;70321;43.592;1.456;2023-08-06T15:15:21;23.12;43.47
65584;DHT22;70321;43.592;1.456;2023-08-06T15:17:52;23.02;43.42
65584;DHT22;70321;43.592;1.456;2023-08-06T15:20:19;22.97;43.82
65584;DHT22;70321;43.592;1.456;2023-08-06T15:22:45;22.87;43.84
65584;DHT22;70321;43.592;1.456;2023-08-06T15:25:12;22.85;43.91
65584;DHT22;70321;43.592;1.456;2023-08-06T15:27:39;22.90;43.98
65584;DHT22;70321;43.592;1.456;2023-08-06T15:30:07;22.97;43.66
65584;DHT22;70321;43.592;1.456;2023-08-06T15:32:34;22.99;43.50
65584;DHT22;70321;43.592;1.456;2023-08-06T15:35:00;23.07;43.48
65584;DHT22;70321;43.592;1.456;2023-08-06T15:37:27;23.11;43.52
65584;DHT22;70321;43.592;1.456;2023-08-06T15:39:54;23.16;42.17